createdAt,value
2022-11-28T00:01:39.845Z,6.63
2022-11-28T00:04:08.868Z,6.60
2022-11-28T00:06:38.263Z,6.57
2022-11-28T00:09:06.941Z,8.53
2022-11-28T00:11:35.015Z,5.73
2022-11-28T00:14:02.800Z,6.00
2022-11-28T00:16:30.609Z,5.83
2022-11-28T00:19:02.271Z,7.00
2022-11-28T00:21:31.170Z,7.20
2022-11-28T00:23:59.922Z,5.93
2022-11-28T00:26:31.544Z,6.20
2022-11-28T00:29:01.937Z,5.67
2022-11-28T00:31:32.745Z,7.57
2022-11-28T00:34:02.841Z,6.47
2022-11-28T00:36:31.835Z,4.70
2022-11-28T00:38:59.631Z,5.20
2022-11-28T00:41:30.282Z,6.40
2022-11-28T00:43:59.315Z,4.97
2022-11-28T00:46:27.953Z,7.97
2022-11-28T00:48:56.028Z,7.37
2022-11-28T00:51:26.901Z,7.80
2022-11-28T00:53:57.478Z,7.33
2022-11-28T00:56:27.051Z,7.50
2022-11-28T00:58:55.169Z,6.07
2022-11-28T01:01:25.193Z,5.93
2022-11-28T01:03:55.561Z,6.93
2022-11-28T01:06:26.994Z,7.77
2022-11-28T01:08:59.143Z,8.33
2022-11-28T01:11:27.118Z,8.27
2022-11-28T01:13:55.287Z,8.67
2022-11-28T01:16:23.890Z,8.00
2022-11-28T01:18:52.380Z,6.37
2022-11-28T01:21:21.148Z,6.83
2022-11-28T01:23:50.658Z,6.80
2022-11-28T01:26:20.925Z,7.80
2022-11-28T01:28:49.533Z,6.77
2022-11-28T01:31:19.797Z,7.40
2022-11-28T01:33:48.249Z,6.50
2022-11-28T01:36:17.232Z,7.70
2022-11-28T01:38:45.555Z,8.00
2022-11-28T01:41:15.812Z,7.33
2022-11-28T01:43:59.844Z,6.60
2022-11-28T01:46:27.806Z,11.93
2022-11-28T01:48:59.436Z,6.33
2022-11-28T01:51:27.732Z,7.07
2022-11-28T01:53:56.595Z,8.63
2022-11-28T01:56:28.397Z,8.10
2022-11-28T01:58:59.525Z,6.13
2022-11-28T02:01:28.078Z,7.77
2022-11-28T02:03:58.256Z,8.80
2022-11-28T02:06:27.046Z,14.20
2022-11-28T02:08:56.447Z,7.87
2022-11-28T02:11:48.672Z,11.00
2022-11-28T02:14:28.923Z,6.90
2022-11-28T02:17:12.592Z,6.20
2022-11-28T02:20:31.109Z,8.47
2022-11-28T02:23:09.954Z,7.27
2022-11-28T02:26:05.975Z,6.90
2022-11-28T02:28:51.749Z,7.67
2022-11-28T02:31:35.762Z,7.27
2022-11-28T02:34:13.339Z,7.73
2022-11-28T02:36:48.410Z,6.10
2022-11-28T02:39:31.234Z,6.20
2022-11-28T02:42:05.241Z,7.13
2022-11-28T02:44:43.978Z,7.83
2022-11-28T02:47:17.147Z,6.63
2022-11-28T02:49:52.811Z,6.17
2022-11-28T02:52:26.268Z,5.67
2022-11-28T02:54:56.651Z,6.63
2022-11-28T02:57:24.499Z,5.87
2022-11-28T02:59:52.556Z,7.40
2022-11-28T03:02:27.578Z,7.27
2022-11-28T03:05:08.693Z,7.50
2022-11-28T03:08:01.886Z,8.40
2022-11-28T03:10:40.152Z,7.57
2022-11-28T03:13:16.696Z,6.60
2022-11-28T03:16:03.367Z,8.27
2022-11-28T03:18:35.142Z,6.93
2022-11-28T03:21:11.668Z,7.00
2022-11-28T03:23:45.224Z,6.20
2022-11-28T03:26:20.069Z,6.63
2022-11-28T03:28:53.167Z,6.90
2022-11-28T03:31:25.591Z,7.23
2022-11-28T03:33:58.178Z,7.27
2022-11-28T03:36:30.411Z,6.00
2022-11-28T03:39:04.399Z,6.13
2022-11-28T03:41:37.055Z,7.37
2022-11-28T03:44:09.312Z,7.00
2022-11-28T03:46:42.086Z,4.87
2022-11-28T03:49:12.325Z,5.60
2022-11-28T03:51:47.643Z,8.37
2022-11-28T03:54:23.556Z,6.07
2022-11-28T03:56:58.357Z,7.83
2022-11-28T03:59:32.158Z,7.93
2022-11-28T04:02:06.697Z,7.43
2022-11-28T04:04:42.424Z,8.60
2022-11-28T04:07:22.433Z,7.10
2022-11-28T04:09:54.402Z,6.43
2022-11-28T04:12:32.004Z,6.80
2022-11-28T04:15:04.936Z,5.83
2022-11-28T04:17:36.277Z,6.20
2022-11-28T04:20:10.076Z,6.00
2022-11-28T04:22:45.427Z,8.60
2022-11-28T04:25:17.318Z,5.93
2022-11-28T04:27:50.100Z,7.40
2022-11-28T04:30:18.163Z,7.87
2022-11-28T04:32:50.498Z,8.27
2022-11-28T04:35:24.686Z,6.80
2022-11-28T04:37:55.784Z,8.37
2022-11-28T04:40:24.904Z,7.33
2022-11-28T04:42:57.601Z,9.43
2022-11-28T04:45:30.112Z,6.03
2022-11-28T04:47:58.546Z,8.97
2022-11-28T04:50:31.708Z,5.53
2022-11-28T04:53:09.554Z,6.73
2022-11-28T04:55:46.261Z,6.27
2022-11-28T04:58:20.463Z,7.33
2022-11-28T05:00:51.738Z,8.43
2022-11-28T05:03:19.727Z,6.87
2022-11-28T05:05:50.247Z,7.80
2022-11-28T05:08:20.250Z,10.33
2022-11-28T05:10:48.340Z,7.13
2022-11-28T05:13:16.877Z,7.50
2022-11-28T05:15:44.809Z,5.60
2022-11-28T05:18:12.760Z,6.43
2022-11-28T05:20:41.134Z,8.63
2022-11-28T05:23:08.923Z,7.80
2022-11-28T05:25:40.107Z,8.43
2022-11-28T05:28:09.058Z,6.77
2022-11-28T05:30:36.848Z,7.00
2022-11-28T05:33:04.693Z,7.83
2022-11-28T05:35:32.496Z,6.73
2022-11-28T05:38:00.366Z,5.50
2022-11-28T05:40:28.133Z,5.40
2022-11-28T05:42:57.317Z,6.70
2022-11-28T05:45:25.303Z,5.87
2022-11-28T05:47:53.100Z,7.27
2022-11-28T05:50:22.921Z,7.50
2022-11-28T05:52:50.816Z,7.80
2022-11-28T05:55:18.848Z,6.53
2022-11-28T05:57:49.008Z,6.40
2022-11-28T06:00:19.388Z,8.13
2022-11-28T06:02:47.526Z,6.83
2022-11-28T06:05:40.999Z,5.73
2022-11-28T06:08:05.909Z,5.77
2022-11-28T06:10:33.764Z,5.97
2022-11-28T06:13:02.905Z,7.57
2022-11-28T06:15:37.548Z,8.13
2022-11-28T06:18:08.286Z,9.80
2022-11-28T06:20:36.460Z,7.20
2022-11-28T06:23:04.245Z,8.23
2022-11-28T06:25:32.019Z,9.20
2022-11-28T06:27:59.825Z,8.63
2022-11-28T06:30:27.693Z,9.03
2022-11-28T06:32:56.905Z,7.27
2022-11-28T06:35:24.830Z,8.17
2022-11-28T06:37:52.685Z,9.13
2022-11-28T06:40:20.645Z,7.17
2022-11-28T06:42:50.391Z,6.97
2022-11-28T06:45:18.331Z,10.77
2022-11-28T06:47:46.145Z,8.37
2022-11-28T06:50:15.328Z,7.97
2022-11-28T06:52:43.117Z,7.20
2022-11-28T06:55:11.172Z,7.57
2022-11-28T06:57:39.306Z,8.67
2022-11-28T07:00:08.807Z,8.63
2022-11-28T07:02:36.691Z,10.97
2022-11-28T07:05:04.770Z,7.70
2022-11-28T07:07:41.762Z,6.83
2022-11-28T07:10:21.020Z,6.23
2022-11-28T07:12:48.882Z,5.90
2022-11-28T07:15:16.732Z,6.87
2022-11-28T07:17:44.516Z,6.93
2022-11-28T07:20:13.095Z,8.40
2022-11-28T07:22:43.045Z,6.37
2022-11-28T07:25:11.273Z,7.13
2022-11-28T07:27:39.059Z,8.97
2022-11-28T07:30:09.861Z,10.40
2022-11-28T07:32:40.360Z,8.00
2022-11-28T07:35:09.297Z,11.80
2022-11-28T07:37:37.600Z,9.43
2022-11-28T07:40:08.395Z,6.90
2022-11-28T07:42:36.718Z,9.50
2022-11-28T07:45:05.229Z,7.00
2022-11-28T07:47:33.115Z,8.27
2022-11-28T07:50:00.842Z,11.23
2022-11-28T07:52:28.805Z,8.80
2022-11-28T07:54:56.750Z,8.73
2022-11-28T07:57:26.009Z,10.90
2022-11-28T07:59:53.780Z,7.93
2022-11-28T08:02:21.782Z,19.40
2022-11-28T08:04:54.948Z,12.73
2022-11-28T08:07:23.305Z,13.37
2022-11-28T08:09:51.284Z,11.10
2022-11-28T08:12:19.091Z,12.53
2022-11-28T08:14:48.309Z,10.83
2022-11-28T08:17:18.460Z,10.37
2022-11-28T08:19:46.263Z,9.67
2022-11-28T08:22:14.317Z,11.77
2022-11-28T08:24:42.528Z,11.33
2022-11-28T08:27:10.532Z,9.47
2022-11-28T08:29:41.079Z,10.17
2022-11-28T08:32:10.573Z,11.30
2022-11-28T08:34:38.416Z,8.67
2022-11-28T08:37:06.238Z,12.00
2022-11-28T08:39:36.129Z,11.80
2022-11-28T08:42:04.020Z,9.93
2022-11-28T08:44:31.904Z,12.73
2022-11-28T08:47:00.477Z,8.73
2022-11-28T08:49:32.636Z,12.90
2022-11-28T08:52:00.540Z,13.23
2022-11-28T08:54:30.667Z,10.93
2022-11-28T08:56:58.942Z,11.13
2022-11-28T08:59:26.775Z,12.87
2022-11-28T09:01:55.030Z,9.93
2022-11-28T09:04:23.824Z,10.03
2022-11-28T09:06:53.602Z,10.40
2022-11-28T09:09:21.822Z,9.77
2022-11-28T09:11:49.702Z,8.17
2022-11-28T09:14:17.493Z,9.23
2022-11-28T09:16:45.354Z,12.10
2022-11-28T09:19:13.191Z,9.57
2022-11-28T09:21:41.654Z,10.27
2022-11-28T09:24:13.926Z,8.63
2022-11-28T09:26:41.905Z,11.20
2022-11-28T09:29:09.754Z,7.73
2022-11-28T09:31:37.617Z,9.43
2022-11-28T09:34:05.484Z,9.03
2022-11-28T09:36:33.908Z,6.90
2022-11-28T09:39:02.439Z,10.30
2022-11-28T09:41:39.869Z,10.47
2022-11-28T09:44:16.316Z,12.23
2022-11-28T09:46:46.283Z,10.90
2022-11-28T09:49:24.151Z,7.17
2022-11-28T09:51:56.489Z,6.37
2022-11-28T09:54:31.308Z,8.47
2022-11-28T09:57:03.165Z,8.70
2022-11-28T09:59:31.963Z,7.10
2022-11-28T10:02:14.451Z,10.77
2022-11-28T10:04:45.111Z,8.30
2022-11-28T10:07:22.034Z,10.93
2022-11-28T10:09:58.192Z,10.03
2022-11-28T10:12:38.689Z,11.53
2022-11-28T10:15:34.435Z,11.17
2022-11-28T10:18:16.059Z,11.10
2022-11-28T10:20:57.029Z,12.37
2022-11-28T10:23:29.863Z,8.43
2022-11-28T10:26:00.152Z,10.73
2022-11-28T10:28:34.114Z,6.80
2022-11-28T10:31:07.012Z,9.20
2022-11-28T10:33:41.170Z,8.67
2022-11-28T10:36:18.118Z,8.60
2022-11-28T10:38:45.981Z,10.50
2022-11-28T10:41:19.571Z,11.70
2022-11-28T10:43:59.343Z,8.80
2022-11-28T10:46:36.319Z,9.43
2022-11-28T10:49:17.668Z,13.80
2022-11-28T10:51:53.465Z,11.60
2022-11-28T10:54:40.141Z,8.23
2022-11-28T10:57:12.124Z,11.07
2022-11-28T10:59:59.755Z,7.07
2022-11-28T11:02:39.231Z,8.30
2022-11-28T11:05:11.160Z,9.90
2022-11-28T11:07:39.364Z,8.03
2022-11-28T11:10:15.961Z,12.10
2022-11-28T11:12:45.097Z,9.03
2022-11-28T11:15:21.399Z,9.83
2022-11-28T11:17:50.967Z,15.23
2022-11-28T11:20:40.170Z,8.60
2022-11-28T11:23:18.432Z,10.20
2022-11-28T11:25:52.295Z,9.10
2022-11-28T11:28:39.063Z,8.60
2022-11-28T11:31:17.817Z,10.27
2022-11-28T11:33:49.989Z,8.73
2022-11-28T11:36:25.394Z,9.10
2022-11-28T11:39:05.236Z,15.70
2022-11-28T11:41:35.480Z,11.07
2022-11-28T11:44:29.295Z,8.83
2022-11-28T11:47:00.723Z,10.07
2022-11-28T11:49:30.321Z,8.80
2022-11-28T11:51:59.682Z,13.37
2022-11-28T11:54:27.660Z,12.93
2022-11-28T11:57:24.952Z,16.27
2022-11-28T11:59:51.579Z,8.80
2022-11-28T12:02:28.928Z,10.97
2022-11-28T12:05:03.058Z,9.27
2022-11-28T12:07:38.187Z,10.03
2022-11-28T12:10:12.152Z,10.20
2022-11-28T12:12:42.532Z,10.90
2022-11-28T12:15:18.360Z,9.83
2022-11-28T12:18:03.755Z,10.33
2022-11-28T12:20:41.458Z,8.33
2022-11-28T12:23:23.523Z,9.40
2022-11-28T12:25:57.802Z,12.83
2022-11-28T12:28:40.684Z,10.50
2022-11-28T12:31:18.030Z,10.80
2022-11-28T12:33:59.998Z,12.27
2022-11-28T12:36:35.071Z,9.83
2022-11-28T12:39:18.858Z,7.43
2022-11-28T12:42:10.123Z,11.67
2022-11-28T12:44:54.043Z,10.70
2022-11-28T12:47:34.727Z,12.03
2022-11-28T12:50:20.120Z,9.30
2022-11-28T12:52:55.437Z,10.27
2022-11-28T12:55:33.335Z,10.83
2022-11-28T12:58:08.915Z,11.43
2022-11-28T13:00:47.745Z,11.93
2022-11-28T13:03:35.444Z,9.70
2022-11-28T13:06:16.384Z,9.17
2022-11-28T13:08:56.371Z,9.13
2022-11-28T13:11:40.093Z,7.87
2022-11-28T13:14:16.547Z,7.67
2022-11-28T13:16:47.928Z,8.67
2022-11-28T13:19:28.592Z,11.37
2022-11-28T13:22:08.878Z,11.03
2022-11-28T13:24:44.205Z,7.20
2022-11-28T13:27:22.039Z,7.60
2022-11-28T13:29:58.890Z,7.83
2022-11-28T13:32:33.867Z,7.30
2022-11-28T13:35:02.267Z,10.37
2022-11-28T13:40:36.184Z,8.67
2022-11-28T13:43:08.913Z,10.67
2022-11-28T13:45:39.625Z,8.63
2022-11-28T13:51:34.086Z,8.03
2022-11-28T13:54:48.832Z,11.43
2022-11-28T13:57:37.407Z,8.80
2022-11-28T14:00:23.423Z,9.23
2022-11-28T14:02:55.095Z,12.20
2022-11-28T14:05:30.076Z,10.30
2022-11-28T14:07:59.068Z,9.37
2022-11-28T14:10:40.014Z,9.83
2022-11-28T14:13:44.854Z,9.97
2022-11-28T14:16:31.771Z,10.60
2022-11-28T14:19:19.253Z,9.80
2022-11-28T14:21:59.027Z,11.33
2022-11-28T14:24:41.148Z,9.77
2022-11-28T14:27:18.221Z,11.37
2022-11-28T14:29:50.733Z,15.37
2022-11-28T14:32:35.435Z,11.67
2022-11-28T14:35:06.875Z,9.17
2022-11-28T14:37:57.780Z,9.77
2022-11-28T14:41:05.392Z,9.53
2022-11-28T14:43:35.771Z,8.77
2022-11-28T14:46:58.383Z,10.03
2022-11-28T14:49:28.016Z,10.00
2022-11-28T14:52:41.775Z,9.67
2022-11-28T14:55:21.831Z,6.37
2022-11-28T14:57:57.011Z,10.20
2022-11-28T15:00:26.725Z,10.53
2022-11-28T15:03:17.439Z,8.07
2022-11-28T15:05:49.830Z,5.17
2022-11-28T15:08:45.530Z,8.40
2022-11-28T15:11:34.538Z,5.93
2022-11-28T15:14:23.267Z,7.37
2022-11-28T15:16:56.126Z,8.83
2022-11-28T15:19:27.675Z,8.60
2022-11-28T15:21:57.734Z,8.33
2022-11-28T15:24:29.761Z,8.97
2022-11-28T15:26:59.821Z,9.70
2022-11-28T15:29:29.530Z,10.07
2022-11-28T15:32:01.093Z,11.47
2022-11-28T15:34:31.358Z,8.63
2022-11-28T15:37:02.609Z,8.50
2022-11-28T15:39:36.001Z,6.23
2022-11-28T15:42:05.969Z,10.40
2022-11-28T15:44:34.186Z,7.17
2022-11-28T15:47:05.270Z,12.17
2022-11-28T15:49:40.814Z,10.70
2022-11-28T15:52:18.790Z,12.40
2022-11-28T15:54:51.490Z,11.17
2022-11-28T15:57:20.873Z,7.63
2022-11-28T15:59:48.901Z,10.00
2022-11-28T16:02:22.986Z,6.37
2022-11-28T16:04:54.349Z,7.20
2022-11-28T16:07:26.321Z,10.93
2022-11-28T16:09:59.432Z,11.87
2022-11-28T16:12:29.423Z,11.53
2022-11-28T16:15:01.920Z,9.80
2022-11-28T16:17:32.701Z,14.10
2022-11-28T16:20:04.557Z,13.53
2022-11-28T16:22:38.148Z,13.80
2022-11-28T16:25:15.632Z,12.47
2022-11-28T16:27:45.631Z,13.07
2022-11-28T16:30:27.552Z,12.77
2022-11-28T16:32:58.189Z,13.67
2022-11-28T16:35:28.862Z,9.17
2022-11-28T16:38:07.010Z,10.87
2022-11-28T16:40:37.254Z,11.00
2022-11-28T16:43:10.243Z,12.40
2022-11-28T16:45:38.416Z,12.40
2022-11-28T16:48:10.013Z,11.13
2022-11-28T16:50:38.720Z,9.27
2022-11-28T16:53:07.945Z,12.53
2022-11-28T16:55:46.543Z,11.63
2022-11-28T16:58:23.688Z,11.50
2022-11-28T17:01:01.349Z,12.10
2022-11-28T17:03:48.194Z,12.33
2022-11-28T17:06:25.403Z,13.87
2022-11-28T17:08:54.711Z,12.37
2022-11-28T17:11:25.784Z,15.03
2022-11-28T17:13:57.229Z,15.03
2022-11-28T17:16:27.419Z,11.70
2022-11-28T17:18:55.589Z,13.27
2022-11-28T17:21:34.572Z,13.23
2022-11-28T17:24:08.729Z,16.60
2022-11-28T17:26:36.895Z,10.80
2022-11-28T17:29:30.836Z,10.93
2022-11-28T17:31:59.428Z,16.23
2022-11-28T17:34:29.631Z,11.97
2022-11-28T17:37:05.164Z,14.50
2022-11-28T17:39:36.618Z,12.83
2022-11-28T17:42:06.525Z,13.40
2022-11-28T17:44:37.821Z,17.73
2022-11-28T17:47:08.550Z,14.23
2022-11-28T17:49:44.694Z,15.30
2022-11-28T17:52:17.248Z,17.53
2022-11-28T17:54:49.262Z,17.57
2022-11-28T17:57:17.175Z,12.17
2022-11-28T17:59:48.127Z,11.73
2022-11-28T18:02:16.466Z,9.87
2022-11-28T18:04:44.709Z,14.57
2022-11-28T18:07:13.564Z,11.07
2022-11-28T18:09:46.263Z,14.83
2022-11-28T18:12:14.712Z,12.97
2022-11-28T18:14:43.485Z,13.80
2022-11-28T18:17:14.211Z,16.37
2022-11-28T18:19:42.655Z,12.23
2022-11-28T18:22:10.919Z,12.23
2022-11-28T18:24:39.249Z,11.47
2022-11-28T18:27:08.391Z,12.83
2022-11-28T18:29:36.311Z,10.20
2022-11-28T18:32:04.765Z,12.83
2022-11-28T18:34:35.615Z,10.23
2022-11-28T18:37:06.232Z,10.43
2022-11-28T18:39:34.885Z,11.80
2022-11-28T18:42:03.196Z,10.60
2022-11-28T18:44:32.610Z,11.30
2022-11-28T18:47:00.734Z,13.03
2022-11-28T18:49:28.513Z,13.37
2022-11-28T18:51:58.046Z,14.60
2022-11-28T18:54:26.010Z,12.93
2022-11-28T18:57:01.072Z,13.47
2022-11-28T18:59:29.284Z,10.80
2022-11-28T19:01:59.627Z,12.13
2022-11-28T19:04:27.550Z,12.67
2022-11-28T19:06:57.552Z,9.70
2022-11-28T19:09:26.187Z,9.60
2022-11-28T19:11:56.112Z,8.27
2022-11-28T19:14:25.150Z,12.43
2022-11-28T19:16:54.091Z,10.87
2022-11-28T19:19:23.730Z,12.93
2022-11-28T19:21:52.178Z,8.27
2022-11-28T19:24:20.164Z,9.47
2022-11-28T19:26:48.388Z,11.13
2022-11-28T19:29:16.308Z,11.50
2022-11-28T19:31:44.218Z,12.10
2022-11-28T19:34:13.905Z,13.07
2022-11-28T19:36:45.313Z,8.83
2022-11-28T19:39:16.840Z,13.33
2022-11-28T19:41:45.242Z,9.23
2022-11-28T19:44:15.850Z,8.13
2022-11-28T19:46:44.554Z,11.70
2022-11-28T19:49:19.396Z,9.80
2022-11-28T19:51:49.052Z,8.30
2022-11-28T19:54:19.551Z,13.77
2022-11-28T19:56:47.726Z,9.53
2022-11-28T19:59:16.124Z,12.33
2022-11-28T20:01:44.623Z,10.30
2022-11-28T20:04:14.127Z,10.20
2022-11-28T20:06:42.174Z,9.90
2022-11-28T20:09:13.802Z,11.00
2022-11-28T20:11:43.879Z,8.80
2022-11-28T20:14:14.017Z,7.97
2022-11-28T20:16:42.008Z,8.50
2022-11-28T20:19:12.408Z,13.13
2022-11-28T20:21:40.359Z,10.07
2022-11-28T20:24:09.654Z,11.33
2022-11-28T20:26:41.597Z,12.67
2022-11-28T20:29:13.802Z,11.63
2022-11-28T20:31:45.310Z,8.57
2022-11-28T20:34:17.391Z,10.40
2022-11-28T20:36:46.247Z,9.73
2022-11-28T20:39:14.305Z,10.93
2022-11-28T20:41:43.464Z,9.43
2022-11-28T20:44:11.320Z,13.77
2022-11-28T20:46:39.889Z,12.93
2022-11-28T20:49:08.360Z,12.00
2022-11-28T20:51:37.355Z,15.63
2022-11-28T20:54:06.477Z,13.20
2022-11-28T20:56:57.836Z,13.87
2022-11-28T20:59:25.226Z,14.57
2022-11-28T21:01:53.178Z,16.23
2022-11-28T21:04:21.111Z,17.63
2022-11-28T21:06:49.538Z,17.30
2022-11-28T21:09:19.960Z,18.23
2022-11-28T21:11:58.233Z,14.63
2022-11-28T21:14:28.968Z,15.00
2022-11-28T21:16:57.987Z,12.77
2022-11-28T21:19:26.000Z,15.60
2022-11-28T21:21:54.004Z,15.10
2022-11-28T21:24:21.889Z,15.10
2022-11-28T21:26:54.014Z,18.23
2022-11-28T21:29:24.346Z,22.53
2022-11-28T21:31:55.979Z,16.67
2022-11-28T21:34:23.868Z,11.20
2022-11-28T21:36:51.697Z,11.53
2022-11-28T21:39:21.916Z,10.17
2022-11-28T21:41:51.007Z,9.30
2022-11-28T21:44:18.950Z,10.17
2022-11-28T21:46:46.912Z,9.80
2022-11-28T21:49:17.010Z,12.83
2022-11-28T21:51:44.953Z,15.23
2022-11-28T21:54:13.772Z,17.33
2022-11-28T21:56:41.923Z,16.50
2022-11-28T21:59:10.133Z,19.87
2022-11-28T22:01:41.296Z,23.00
2022-11-28T22:04:11.941Z,16.20
2022-11-28T22:06:41.757Z,22.30
2022-11-28T22:11:55.834Z,14.57
2022-11-28T22:14:23.600Z,20.93
2022-11-28T22:16:51.448Z,20.27
2022-11-28T22:19:21.420Z,19.33
2022-11-28T22:21:53.267Z,13.37
2022-11-28T22:24:24.543Z,12.33
2022-11-28T22:26:52.570Z,14.40
2022-11-28T22:29:20.408Z,17.40
2022-11-28T22:31:49.672Z,16.07
2022-11-28T22:34:18.475Z,15.07
2022-11-28T22:36:46.287Z,14.37
2022-11-28T22:39:15.446Z,17.33
2022-11-28T22:41:43.673Z,13.03
2022-11-28T22:44:12.620Z,12.03
2022-11-28T22:46:40.547Z,14.83
2022-11-28T22:49:11.492Z,17.20
2022-11-28T22:51:40.695Z,14.37
2022-11-28T22:54:11.120Z,17.90
2022-11-28T22:56:41.124Z,18.63
2022-11-28T22:59:13.324Z,15.07
2022-11-28T23:01:43.383Z,14.30
2022-11-28T23:04:11.706Z,12.97
2022-11-28T23:06:40.457Z,13.43
2022-11-28T23:09:10.542Z,12.10
2022-11-28T23:16:30.963Z,18.50
2022-11-28T23:19:00.567Z,18.17
2022-11-28T23:21:31.696Z,17.40
2022-11-28T23:23:59.795Z,19.57
2022-11-28T23:26:30.734Z,20.30
2022-11-28T23:29:01.388Z,15.40
2022-11-28T23:31:32.408Z,11.90
2022-11-28T23:34:01.757Z,14.77
2022-11-28T23:36:31.884Z,13.20
2022-11-28T23:39:03.996Z,13.17
2022-11-28T23:41:32.631Z,16.97
2022-11-28T23:44:01.166Z,14.77
2022-11-28T23:46:30.466Z,14.03
2022-11-28T23:48:58.319Z,11.90
2022-11-28T23:51:27.042Z,11.33
2022-11-28T23:53:55.424Z,11.93
2022-11-28T23:56:25.180Z,16.53
2022-11-28T23:58:54.141Z,12.17
